Latest Weather Observations for Casey (Skiway South)*

IDT60801

Issued at 6:01 pm EDT Sunday 1 February 2015 (issued every 30 minutes, with the page automatically refreshed every 10 minutes)

About weather observations | Map of weather stations | Latest weather observations for ANT | Other Formats
Station Details ID: 300060 Name: CASEY SKIWAY SOUTH Lat: -66.28 Lon: 110.76 Height: 390.0 m
Data from the previous 72 hours. | See also: Recent months for locations in Antarctica
Date/Time
EDT
Temp
°C
App
Temp
°C
Dew
Point
Rel
Hum
%
Delta-T
°C
Wind Press
QNH
hPa
Press
MSL
hPa
Rain
since 9 am
mm
Dir
 
Spd
km/h
Gust
km/h
Spd
kts
Gust
kts
01/05:30pm -4.1 -7.0 -4.6 96 0.0 N 2 4 1 2 979.4 - -
01/04:30pm -3.8 -6.7 -4.2 97 0.0 NNE 2 4 1 2 979.1 - -
01/04:00pm -4.2 -7.5 -4.7 96 0.0 NNE 4 4 2 2 979.0 - -
01/03:30pm -4.5 -7.9 -5.0 96 0.0 NNE 4 4 2 2 978.8 - -
01/03:00pm -4.5 -7.9 -5.0 96 0.0 NNE 4 6 2 3 978.6 - -
01/02:30pm -4.6 -8.0 -5.1 96 0.0 NNE 4 6 2 3 978.2 - -
01/02:00pm -4.9 -8.3 -5.4 96 0.0 N 4 6 2 3 978.2 - -
01/01:30pm -5.0 -8.8 -5.5 96 0.0 NNE 6 7 3 4 978.1 - -
01/01:00pm -5.0 -8.8 -5.5 96 0.0 N 6 7 3 4 977.9 - -
01/12:30pm -4.9 -8.9 -5.4 96 0.0 NNE 7 9 4 5 977.6 - -
01/12:00pm -4.9 -9.3 -5.4 96 0.0 NNE 9 9 5 5 977.5 - -
01/11:30am -4.6 -8.9 -5.0 97 -0.1 NNE 9 11 5 6 977.4 - -
01/10:30am -5.1 -9.9 -5.6 96 0.0 NE 11 11 6 6 977.1 - -
01/10:00am -5.3 -9.7 -5.8 96 -0.1 NE 9 11 5 6 977.0 - -
01/09:30am -6.1 -11.0 -6.8 95 0.0 NE 11 13 6 7 976.9 - -
01/09:00am -6.2 -11.1 -6.9 95 0.0 NE 11 13 6 7 976.7 - -
01/08:30am -6.7 -12.0 -7.4 95 0.0 NE 13 15 7 8 976.5 - -
01/08:00am -7.0 -12.3 -7.7 95 0.0 NE 13 17 7 9 976.4 - -
01/07:30am -8.0 -13.4 -8.8 94 -0.1 ENE 13 13 7 7 976.3 - -
01/07:00am -8.0 -13.4 -8.8 94 -0.1 E 13 15 7 8 976.2 - -
01/06:00am -5.8 -10.6 -6.2 97 -0.1 NE 11 13 6 7 976.1 - -
01/05:30am -5.4 -10.2 -5.8 97 -0.1 NE 11 13 6 7 976.0 - -
01/04:30am -5.1 -9.5 -5.4 98 -0.1 NE 9 13 5 7 975.9 - -
01/04:00am -4.9 -9.6 -5.2 98 -0.1 NNE 11 15 6 8 975.9 - -
01/03:30am -4.7 -9.4 -5.0 98 -0.1 NNE 11 13 6 7 975.9 - -
01/03:00am -5.8 -10.6 -6.2 97 -0.1 NE 11 13 6 7 975.9 - -
01/02:30am -7.5 -13.3 -8.4 93 0.0 NE 15 17 8 9 976.0 - -
01/02:00am -6.6 -11.9 -7.4 94 0.0 NE 13 17 7 9 976.0 - -
01/01:30am -5.7 -11.7 -6.2 96 -0.1 E 17 19 9 10 976.0 - -
01/01:00am -6.2 -12.2 -6.7 96 -0.1 E 17 19 9 10 976.1 - -
01/12:30am -6.6 -12.3 -7.1 96 -0.1 E 15 17 8 9 976.0 - -
01/12:00am -5.4 -10.2 -5.7 98 -0.1 E 11 13 6 7 976.1 - -
 
Date/Time
EDT
Temp
°C
App
Temp
°C
Dew
Point
Rel
Hum
%
Delta-T
°C
Wind Press
QNH
hPa
Press
MSL
hPa
Rain
since 9 am
mm
Dir
 
Spd
km/h
Gust
km/h
Spd
kts
Gust
kts
31/11:30pm -3.3 -7.4 -3.4 99 -0.1 E 9 11 5 6 976.1 - -
31/11:00pm -2.9 -6.6 -3.0 99 -0.1 E 7 9 4 5 976.2 - -
31/10:30pm -3.1 -6.6 -3.2 99 -0.1 ENE 6 7 3 4 976.3 - -
31/10:00pm -2.9 -6.4 -3.2 98 0.0 N 6 7 3 4 976.3 - -
31/09:30pm -2.7 -6.3 -3.7 93 0.2 N 6 7 3 4 976.4 - -
31/09:00pm -2.8 -6.6 -3.5 95 0.1 NNW 7 7 4 4 976.4 - -
31/08:30pm -1.3 -4.9 -3.5 85 0.7 NW 6 7 3 4 976.3 - -
31/08:00pm 1.9 -0.9 -3.2 69 1.8 S 2 6 1 3 976.3 - -
31/07:30pm 0.4 -3.1 -2.8 79 1.1 SSE 6 7 3 4 976.3 - -
31/07:00pm -0.1 -4.2 -3.0 81 1.0 SSE 9 11 5 6 976.3 - -
31/06:30pm -0.6 -5.0 -2.6 86 0.7 SSE 11 13 6 7 976.4 - -
31/06:00pm -0.7 -5.1 -2.7 86 0.7 S 11 13 6 7 976.5 - -
31/05:30pm -0.7 -4.8 -2.9 85 0.7 S 9 11 5 6 976.5 - -
31/05:00pm -1.5 -5.2 -2.9 90 0.4 SSW 7 9 4 5 976.7 - -
31/04:30pm -1.8 -5.9 -3.1 91 0.4 SW 9 9 5 5 976.8 - -
31/04:00pm -1.7 -5.8 -3.1 90 0.4 SW 9 11 5 6 976.9 - -
31/03:30pm -1.6 -6.1 -3.5 87 0.6 SSW 11 11 6 6 977.0 - -
31/03:10pm -1.5 -5.7 -3.7 85 0.7 SSW 9 11 5 6 977.1 - -
31/03:09pm -1.5 -5.7 -3.7 85 0.7 SSW 9 11 5 6 977.1 - -
31/03:00pm -1.4 -5.6 -3.6 85 0.7 SSW 9 11 5 6 977.2 - -
31/02:30pm -1.4 -5.5 -3.4 86 0.6 SSW 9 11 5 6 977.4 - -
31/02:00pm -2.0 -6.1 -3.1 92 0.3 SW 9 11 5 6 977.6 - -
31/01:30pm -2.3 -6.8 -3.4 92 0.3 SW 11 13 6 7 977.8 - -
31/01:00pm -0.3 -3.8 -2.7 84 0.8 S 6 9 3 5 978.1 - -
31/12:30pm -1.5 -6.0 -3.4 87 0.6 SSW 11 13 6 7 978.2 - -
31/12:00pm -1.8 -7.1 -3.8 86 0.6 S 15 17 8 9 978.4 - -
31/11:30am -1.6 -6.9 -3.2 89 0.5 S 15 17 8 9 978.6 - -
31/11:00am -1.6 -6.1 -3.5 87 0.6 S 11 13 6 7 978.7 - -
31/10:30am -1.9 -6.8 -3.5 89 0.4 S 13 15 7 8 978.9 - -
31/10:00am -2.0 -6.9 -3.1 92 0.3 S 13 17 7 9 979.1 - -
31/09:30am -2.1 -7.7 -2.8 95 0.1 S 17 19 9 10 979.5 - -
31/09:00am -2.3 -7.5 -2.8 96 0.1 S 15 19 8 10 979.7 - -
31/08:30am -2.1 -8.0 -2.6 96 0.1 S 19 24 10 13 980.1 - -
31/08:00am -2.4 -7.2 -2.8 97 0.0 S 13 20 7 11 980.3 - -
31/07:44am -2.3 -7.1 -2.8 96 0.1 S 13 17 7 9 980.5 - -
31/07:30am -2.3 -7.2 -3.0 95 0.1 S 13 20 7 11 980.6 - -
31/07:11am -2.3 -7.2 -3.0 95 0.1 S 13 26 7 14 980.7 - -
31/07:00am -2.3 -7.9 -3.0 95 0.1 S 17 20 9 11 980.7 - -
31/06:30am -1.9 -8.1 -3.3 90 0.4 SSE 20 26 11 14 981.0 - -
31/06:00am -1.4 -8.4 -3.9 83 0.8 SE 24 41 13 22 981.2 - -
31/05:56am -1.5 -8.5 -3.7 85 0.7 SSE 24 41 13 22 981.2 - -
31/05:51am -1.8 -8.8 -3.4 89 0.5 SSE 24 41 13 22 981.2 - -
31/05:30am -1.9 -9.3 -3.5 89 0.4 SSE 26 33 14 18 981.4 - -
31/05:00am -1.9 -10.0 -3.5 89 0.4 SE 30 35 16 19 981.3 - -
31/04:30am -1.5 -8.5 -3.8 84 0.7 SE 24 30 13 16 981.7 - -
31/04:08am -1.2 -9.4 -4.4 79 1.0 ESE 30 39 16 21 981.6 - -
31/04:00am -1.0 -8.9 -4.5 77 1.1 ESE 28 33 15 18 981.6 - -
31/03:30am -0.7 -9.0 -4.7 74 1.3 ESE 30 35 16 19 981.8 - -
31/03:00am -0.8 -8.7 -4.7 75 1.2 ESE 28 33 15 18 981.9 - -
31/02:30am -0.7 -8.6 -4.7 74 1.3 ESE 28 33 15 18 982.0 - -
31/02:00am -0.8 -8.7 -4.7 75 1.2 ESE 28 35 15 19 982.0 - -
31/01:30am -0.9 -9.2 -4.6 76 1.2 E 30 37 16 20 982.2 - -
31/01:00am -0.7 -8.2 -4.7 74 1.3 E 26 41 14 22 982.4 - -
31/12:30am -0.4 -9.1 -4.8 72 1.4 E 32 50 17 27 982.5 - -
31/12:03am -0.4 -9.1 -4.8 72 1.4 E 32 57 17 31 981.7 - -
31/12:00am -0.3 -8.2 -4.9 71 1.5 E 28 43 15 23 982.4 - -
 
Date/Time
EDT
Temp
°C
App
Temp
°C
Dew
Point
Rel
Hum
%
Delta-T
°C
Wind Press
QNH
hPa
Press
MSL
hPa
Rain
since 9 am
mm
Dir
 
Spd
km/h
Gust
km/h
Spd
kts
Gust
kts
30/11:30pm -0.4 -9.0 -4.6 73 1.4 E 32 37 17 20 982.5 - -
30/11:00pm -0.6 -8.5 -4.3 76 1.2 E 28 35 15 19 982.6 - -
30/10:30pm -0.3 -8.9 -4.4 74 1.3 E 32 39 17 21 982.8 - -
30/10:00pm -0.3 -9.1 -4.2 75 1.3 E 33 39 18 21 982.6 - -
30/09:30pm -0.3 -9.0 -3.8 77 1.2 E 33 39 18 21 982.7 - -
30/09:00pm -0.2 -8.0 -3.7 77 1.2 E 28 35 15 19 982.9 - -
30/08:40pm -0.3 -7.7 -3.8 77 1.2 E 26 32 14 17 983.1 - -
30/08:30pm -0.2 -6.8 -3.7 77 1.2 E 22 28 12 15 983.2 - -
30/08:00pm 0.0 -8.2 -3.7 76 1.3 E 30 39 16 21 983.4 - -
30/07:30pm 0.2 -6.8 -3.7 75 1.3 E 24 30 13 16 983.5 - -
30/07:00pm 0.2 -6.0 -3.5 76 1.3 E 20 28 11 15 983.6 - -
30/06:30pm 0.3 -6.7 -3.2 77 1.2 E 24 30 13 16 983.8 - -
30/06:00pm 0.3 -6.7 -3.2 77 1.2 E 24 30 13 16 984.1 - -
30/05:30pm 0.3 -7.1 -3.4 76 1.3 E 26 32 14 17 984.2 - -
30/05:00pm 0.2 -6.8 -3.5 76 1.3 E 24 30 13 16 984.3 - -
30/04:30pm -0.1 -8.2 -3.3 79 1.1 E 30 35 16 19 984.4 - -
30/04:00pm -0.6 -8.3 -3.1 83 0.8 E 28 33 15 18 984.4 - -
30/03:30pm -0.5 -8.6 -3.0 83 0.8 ENE 30 35 16 19 984.7 - -
30/03:00pm -0.5 -9.0 -2.9 84 0.8 ENE 32 35 17 19 984.7 - -
30/02:30pm -0.6 -9.0 -2.6 86 0.7 ENE 32 37 17 20 984.8 - -
30/02:00pm -0.7 -8.7 -2.7 86 0.7 ENE 30 33 16 18 984.9 - -
30/01:30pm -0.9 -9.6 -3.1 85 0.7 ENE 33 39 18 21 984.9 - -
30/01:00pm -0.9 -9.5 -2.9 86 0.6 ENE 33 39 18 21 985.0 - -
30/12:30pm -1.2 -10.2 -3.1 87 0.6 ENE 35 39 19 21 985.1 - -
30/12:00pm -1.2 -9.3 -3.2 86 0.6 E 30 37 16 20 985.2 - -
30/11:30am -1.6 -9.3 -3.2 89 0.5 E 28 33 15 18 985.3 - -
30/11:00am -1.6 -9.8 -3.6 86 0.6 E 30 37 16 20 985.4 - -
30/10:30am -1.7 -9.8 -3.4 88 0.5 E 30 35 16 19 985.3 - -
30/10:00am -1.8 -9.9 -3.2 90 0.4 E 30 35 16 19 985.4 - -
30/09:30am -2.0 -10.1 -3.3 91 0.3 E 30 35 16 19 985.4 - -
30/09:00am -2.3 -10.0 -3.3 93 0.2 E 28 32 15 17 985.3 - -
30/08:30am -2.2 -9.9 -2.9 95 0.1 ENE 28 32 15 17 985.1 - -
30/08:00am -2.3 -9.6 -3.0 95 0.1 ENE 26 30 14 16 985.1 - -
30/07:30am -2.6 -10.0 -3.4 94 0.2 ENE 26 30 14 16 984.9 - -
30/07:00am -2.5 -9.1 -3.2 95 0.1 ENE 22 26 12 14 984.9 - -
30/06:30am -2.8 -9.7 -2.9 99 -0.1 ENE 24 26 13 14 984.7 - -
30/06:00am -3.2 -10.2 -3.3 99 -0.1 NE 24 26 13 14 984.5 - -
30/05:30am -2.7 -9.2 -2.8 99 -0.1 NE 22 26 12 14 984.2 - -

Other Formats:

Comma delimited format used in spreadsheet applications
http://www.bom.gov.au/fwo/IDT60803/IDT60803.89809.axf

JavaScript Object Notation format (JSON) in row-major order
http://www.bom.gov.au/fwo/IDT60803/IDT60803.89809.json